Portada
METAR-TAF:

METAR-TAF

Aeropuertos :

Aeropuerto Internacional de Malé

Malé, Maldivas

latitud: 04-12N, longitud: 073-32E, altitud: 2 m

Observación

El informe se hizo hace 1 hora y 5 minutos, a las 05:00 UTC
Viento 6 kt del oeste
Temperatura 30°C
Humedad 75%
Presión 1012 hPa
Visibilidad 10 km o más
Escasas nubes a una altura de 1800 ft, Cumulus congestus.
Cielo nuboso a una altura de 28000 ft

METAR: VRMM 210500Z 27006KT 9999 FEW018TCU BKN280 30/25 Q1012 NOSIG

Hora: 11:05 (06:05 UTC)

Pronóstico

El informe se hizo hace 7 horas y 5 minutos, a las 23:00 UTC
Pronóstico válido del 21 a las 00 UTC al 22 a las 06 UTC
Viento 10 kt del oeste-suroeste
Visibilidad 10 km o más
Escasas nubes a una altura de 1800 ft
Temporalmente
del 21 a las 01 UTC al 21 a las 07 UTC
Escasas nubes a una altura de 1800 ft, Cumulonimbus.

TAF: VRMM 202300Z 2100/2206 24010KT 9999 FEW018 TEMPO 2101/2107 FEW018CB

Observaciones y pronósticos meteorológicos de más de 4000 aeropuertos (mensajes METAR y TAF).

Los puntos amarillos y rojos representan las estaciones disponibles.

Ponga el ratón en el punto deseado para ver el nombre de la estación.

Haga clic para ver las observaciones y los pronósticos meteorológicos.

Para cambiar el mapa : haga clic en los botones verdes con una cruz de color negro para hacer un zoom, en el botón verde con un guión para alejar o en las flechas verdes para mapas adyacentes.


METAR-TAF: